createdAt,value
2023-04-15T00:00:03.214Z,92.20
2023-04-15T00:02:31.246Z,92.30
2023-04-15T00:05:01.016Z,92.20
2023-04-15T00:07:29.621Z,92.30
2023-04-15T00:09:57.856Z,92.20
2023-04-15T00:12:25.990Z,92.30
2023-04-15T00:14:54.385Z,92.40
2023-04-15T00:17:22.236Z,92.40
2023-04-15T00:19:50.083Z,92.30
2023-04-15T00:22:19.275Z,92.30
2023-04-15T00:24:47.144Z,92.40
2023-04-15T00:27:15.217Z,92.40
2023-04-15T00:29:43.407Z,92.40
2023-04-15T00:32:11.253Z,92.40
2023-04-15T00:34:39.194Z,92.40
2023-04-15T00:37:08.372Z,92.40
2023-04-15T00:39:37.601Z,92.40
2023-04-15T00:42:05.838Z,92.40
2023-04-15T00:44:34.635Z,92.40
2023-04-15T00:47:02.797Z,92.40
2023-04-15T00:49:31.339Z,92.40
2023-04-15T00:51:59.191Z,92.40
2023-04-15T00:54:27.128Z,92.40
2023-04-15T00:56:56.559Z,92.50
2023-04-15T00:59:25.111Z,92.40
2023-04-15T03:30:21.051Z,92.90
2023-04-15T03:32:49.070Z,92.90
2023-04-15T03:35:17.190Z,92.90
2023-04-15T03:37:45.228Z,92.90
2023-04-15T03:40:14.019Z,92.90
2023-04-15T03:42:42.165Z,92.90
2023-04-15T03:45:12.606Z,93.00
2023-04-15T03:47:40.763Z,93.00
2023-04-15T03:50:09.709Z,93.00
2023-04-15T03:52:37.637Z,93.00
2023-04-15T03:55:06.720Z,93.00
2023-04-15T03:57:38.107Z,93.10
2023-04-15T04:00:07.900Z,93.00
2023-04-15T04:02:39.482Z,93.10
2023-04-15T04:05:08.151Z,93.20
2023-04-15T04:07:36.586Z,93.20
2023-04-15T04:10:05.196Z,93.30
2023-04-15T04:12:33.226Z,93.20
2023-04-15T04:15:03.171Z,93.20
2023-04-15T04:17:35.509Z,93.20
2023-04-15T04:20:05.674Z,93.20
2023-04-15T04:22:38.003Z,93.20
2023-04-15T04:25:07.111Z,93.30
2023-04-15T04:27:35.197Z,93.20
2023-04-15T04:30:03.217Z,93.30
2023-04-15T04:32:31.668Z,93.30
2023-04-15T04:34:59.614Z,93.30
2023-04-15T04:37:28.913Z,93.40
2023-04-15T04:39:56.879Z,93.40
2023-04-15T04:42:24.892Z,93.50
2023-04-15T04:44:52.889Z,93.60
2023-04-15T04:47:20.854Z,93.60
2023-04-15T04:49:49.123Z,93.70
2023-04-15T04:52:17.269Z,93.60
2023-04-15T04:54:47.292Z,93.70
2023-04-15T04:57:15.208Z,93.70
2023-04-15T04:59:43.383Z,93.70
2023-04-15T05:02:11.350Z,93.70
2023-04-15T05:04:39.385Z,93.60
2023-04-15T05:07:07.308Z,93.70
2023-04-15T05:09:36.637Z,93.90
2023-04-15T05:12:07.764Z,93.70
2023-04-15T05:14:35.613Z,93.80
2023-04-15T05:17:03.485Z,93.70
2023-04-15T05:19:31.452Z,93.60
2023-04-15T05:21:59.381Z,93.70
2023-04-15T05:24:27.364Z,93.70
2023-04-15T05:26:56.195Z,93.70
2023-04-15T05:29:25.663Z,93.70
2023-04-15T05:31:53.737Z,93.70
2023-04-15T05:34:21.682Z,93.70
2023-04-15T05:36:49.604Z,93.80
2023-04-15T05:39:17.487Z,93.80
2023-04-15T05:41:45.672Z,93.80
2023-04-15T05:44:13.742Z,93.70
2023-04-15T05:46:43.471Z,93.80
2023-04-15T05:49:12.017Z,93.70
2023-04-15T05:51:39.940Z,93.80
2023-04-15T05:54:07.850Z,93.80
2023-04-15T05:56:35.726Z,93.80
2023-04-15T05:59:03.875Z,93.80
2023-04-15T06:01:31.819Z,93.70
2023-04-15T06:04:01.832Z,93.80
2023-04-15T06:06:29.813Z,93.80
2023-04-15T06:08:57.726Z,93.80
2023-04-15T06:11:26.710Z,93.80
2023-04-15T06:13:54.637Z,93.80
2023-04-15T06:16:23.202Z,93.80
2023-04-15T06:18:51.172Z,93.80
2023-04-15T06:21:20.632Z,93.90
2023-04-15T06:23:49.005Z,93.80
2023-04-15T06:26:16.897Z,93.80
2023-04-15T06:28:44.817Z,93.80
2023-04-15T06:31:12.798Z,93.80
2023-04-15T06:33:41.016Z,93.80
2023-04-15T06:36:09.224Z,93.80
2023-04-15T06:38:38.626Z,93.80
2023-04-15T06:41:06.774Z,93.80
2023-04-15T06:43:35.044Z,93.80
2023-04-15T06:46:03.359Z,93.80
2023-04-15T06:48:31.300Z,93.80
2023-04-15T06:50:59.321Z,93.80
2023-04-15T06:53:27.867Z,94.10
2023-04-15T06:55:57.367Z,93.80
2023-04-15T06:58:25.426Z,93.80
2023-04-15T07:00:54.303Z,93.80
2023-04-15T07:03:22.419Z,93.90
2023-04-15T07:05:50.362Z,93.90
2023-04-15T07:08:18.348Z,94.00
2023-04-15T07:10:47.144Z,93.90
2023-04-15T07:13:16.509Z,94.00
2023-04-15T07:15:44.792Z,93.90
2023-04-15T07:18:12.738Z,94.00
2023-04-15T07:20:41.385Z,94.00
2023-04-15T07:23:09.391Z,93.90
2023-04-15T07:25:37.663Z,93.90
2023-04-15T07:28:06.259Z,93.90
2023-04-15T07:30:35.663Z,94.00
2023-04-15T07:33:03.991Z,93.90
2023-04-15T07:35:32.031Z,94.00
2023-04-15T07:38:00.078Z,93.90
2023-04-15T07:40:28.181Z,94.00
2023-04-15T07:42:58.238Z,94.20
2023-04-15T07:45:27.360Z,94.00
2023-04-15T07:47:57.418Z,94.00
2023-04-15T07:50:26.209Z,94.00
2023-04-15T07:52:54.364Z,94.20
2023-04-15T07:55:23.468Z,94.00
2023-04-15T07:57:51.686Z,94.20
2023-04-15T08:00:20.109Z,94.00
2023-04-15T08:02:48.593Z,94.10
2023-04-15T08:05:17.995Z,94.20
2023-04-15T08:07:46.262Z,94.20
2023-04-15T08:10:14.442Z,94.20
2023-04-15T08:12:42.775Z,94.10
2023-04-15T08:15:11.475Z,94.20
2023-04-15T08:17:39.486Z,94.20
2023-04-15T08:20:08.738Z,94.20
2023-04-15T08:22:38.075Z,94.50
2023-04-15T08:25:06.867Z,94.30
2023-04-15T08:27:34.829Z,94.20
2023-04-15T08:30:04.864Z,94.20
2023-04-15T08:32:33.586Z,94.00
2023-04-15T08:35:01.927Z,94.00
2023-04-15T08:37:29.911Z,94.10
2023-04-15T08:40:00.780Z,94.20
2023-04-15T08:42:33.487Z,94.00
2023-04-15T08:45:02.768Z,94.00
2023-04-15T08:47:32.779Z,94.20
2023-04-15T08:50:01.123Z,94.10
2023-04-15T08:52:32.238Z,94.00
2023-04-15T08:55:03.246Z,94.10
2023-04-15T08:57:31.442Z,94.10
2023-04-15T09:00:00.441Z,94.20
2023-04-15T09:02:29.493Z,94.10
2023-04-15T09:04:57.624Z,94.00
2023-04-15T09:07:28.178Z,94.00
2023-04-15T09:09:56.637Z,94.00
2023-04-15T09:12:25.976Z,94.00
2023-04-15T09:14:54.589Z,94.00
2023-04-15T09:17:22.679Z,94.00
2023-04-15T09:19:50.642Z,94.00
2023-04-15T09:22:18.643Z,94.20
2023-04-15T09:24:47.816Z,94.00
2023-04-15T09:27:17.916Z,94.10
2023-04-15T09:29:51.701Z,94.30
2023-04-15T09:32:21.183Z,94.20
2023-04-15T09:34:49.115Z,94.10
2023-04-15T09:37:31.571Z,94.10
2023-04-15T09:39:59.913Z,94.10
2023-04-15T09:42:28.647Z,94.20
2023-04-15T09:45:08.831Z,94.10
2023-04-15T09:47:36.996Z,94.10
2023-04-15T09:50:05.368Z,94.10
2023-04-15T09:52:33.429Z,94.20
2023-04-15T09:55:01.941Z,94.20
2023-04-15T09:57:36.354Z,94.20
2023-04-15T10:00:08.233Z,94.00
2023-04-15T10:02:36.878Z,94.20
2023-04-15T10:05:05.995Z,94.20
2023-04-15T10:07:35.151Z,94.10
2023-04-15T10:10:05.315Z,94.20
2023-04-15T10:12:33.508Z,94.10
2023-04-15T10:15:06.599Z,94.20
2023-04-15T10:17:37.115Z,94.20
2023-04-15T10:20:07.112Z,94.10
2023-04-15T10:22:36.154Z,94.10
2023-04-15T10:25:04.528Z,94.10
2023-04-15T10:27:32.862Z,94.20
2023-04-15T10:30:02.985Z,94.20
2023-04-15T10:32:32.901Z,94.10
2023-04-15T10:35:01.195Z,94.10
2023-04-15T10:37:37.354Z,94.10
2023-04-15T10:40:27.302Z,94.20
2023-04-15T10:42:56.634Z,94.20
2023-04-15T10:45:28.268Z,94.20
2023-04-15T10:48:03.881Z,94.10
2023-04-15T10:50:32.931Z,94.10
2023-04-15T10:53:03.772Z,94.30
2023-04-15T10:55:35.286Z,95.00
2023-04-15T10:58:03.716Z,95.50
2023-04-15T11:00:35.189Z,96.70
2023-04-15T11:03:09.266Z,96.60
2023-04-15T11:05:53.695Z,96.30
2023-04-15T11:08:42.463Z,96.20
2023-04-15T11:11:10.351Z,96.00
2023-04-15T11:13:49.365Z,95.90
2023-04-15T11:16:17.725Z,95.80
2023-04-15T11:18:59.991Z,95.70
2023-04-15T11:21:28.184Z,95.50
2023-04-15T11:23:56.228Z,95.50
2023-04-15T11:26:28.094Z,95.30
2023-04-15T11:28:59.712Z,95.30
2023-04-15T11:31:29.616Z,95.30
2023-04-15T11:34:01.855Z,95.20
2023-04-15T11:36:31.863Z,95.10
2023-04-15T11:39:00.810Z,95.30
2023-04-15T11:41:28.836Z,95.30
2023-04-15T11:43:56.916Z,95.20
2023-04-15T11:46:30.834Z,95.10
2023-04-15T11:49:04.802Z,95.20
2023-04-15T11:51:34.860Z,95.20
2023-04-15T11:54:03.574Z,95.10
2023-04-15T11:56:32.050Z,95.00
2023-04-15T12:00:05.763Z,95.00
2023-04-15T12:02:35.372Z,95.00
2023-04-15T12:05:30.741Z,94.90
2023-04-15T12:08:07.345Z,94.90
2023-04-15T12:10:37.279Z,94.90
2023-04-15T12:13:09.145Z,94.90
2023-04-15T12:15:47.892Z,94.90
2023-04-15T12:18:19.237Z,95.00
2023-04-15T12:20:50.026Z,94.90
2023-04-15T12:23:21.167Z,94.90
2023-04-15T12:25:54.655Z,94.80
2023-04-15T12:28:22.630Z,94.80
2023-04-15T12:31:05.227Z,94.80
2023-04-15T12:33:34.810Z,95.20
2023-04-15T12:36:04.724Z,94.70
2023-04-15T12:38:32.791Z,94.70
2023-04-15T12:41:04.862Z,95.00
2023-04-15T12:43:38.599Z,94.70
2023-04-15T12:46:08.449Z,94.70
2023-04-15T12:48:36.434Z,94.60
2023-04-15T12:51:06.179Z,94.60
2023-04-15T12:53:34.094Z,94.50
2023-04-15T12:56:02.207Z,94.50
2023-04-15T12:58:30.209Z,94.50
2023-04-15T13:00:58.352Z,94.60
2023-04-15T13:03:26.594Z,94.50
2023-04-15T13:05:54.672Z,94.50
2023-04-15T13:08:24.235Z,94.50
2023-04-15T13:10:52.336Z,94.80
2023-04-15T13:13:20.459Z,94.40
2023-04-15T13:15:48.476Z,94.40
2023-04-15T13:18:16.619Z,94.40
2023-04-15T13:20:44.544Z,94.50
2023-04-15T13:23:12.634Z,94.80
2023-04-15T13:25:44.683Z,94.40
2023-04-15T13:28:14.697Z,94.40
2023-04-15T13:30:51.631Z,94.40
2023-04-15T13:33:20.098Z,94.40
2023-04-15T13:35:48.133Z,94.40
2023-04-15T13:38:19.611Z,94.40
2023-04-15T13:40:50.439Z,94.30
2023-04-15T13:43:18.757Z,94.30
2023-04-15T13:45:48.715Z,94.30
2023-04-15T13:48:17.199Z,94.30
2023-04-15T13:50:48.735Z,94.30
2023-04-15T13:53:16.788Z,94.30
2023-04-15T13:55:50.376Z,94.20
2023-04-15T13:58:35.841Z,94.30
2023-04-15T14:01:16.274Z,94.20
2023-04-15T14:03:44.788Z,94.20
2023-04-15T14:06:13.171Z,94.20
2023-04-15T14:08:41.660Z,94.20
2023-04-15T14:11:09.822Z,94.20
2023-04-15T14:13:42.031Z,94.20
2023-04-15T14:16:12.858Z,94.20
2023-04-15T14:18:41.718Z,94.20
2023-04-15T14:21:10.831Z,94.20
2023-04-15T14:23:41.757Z,94.10
2023-04-15T14:26:23.013Z,94.10
2023-04-15T14:28:53.329Z,94.10
2023-04-15T14:31:21.641Z,94.10
2023-04-15T14:33:53.832Z,94.10
2023-04-15T14:36:24.379Z,94.10
2023-04-15T14:39:06.698Z,94.10
2023-04-15T14:44:33.410Z,94.10
2023-04-15T14:47:01.883Z,94.10
2023-04-15T14:49:30.391Z,94.20
2023-04-15T14:51:58.395Z,94.30
2023-04-15T14:54:26.479Z,94.30
2023-04-15T14:56:54.396Z,94.20
2023-04-15T14:59:24.394Z,94.20
2023-04-15T15:01:52.407Z,94.20
2023-04-15T15:04:27.385Z,94.20
2023-04-15T15:06:58.151Z,94.20
2023-04-15T15:09:26.668Z,94.20
2023-04-15T15:11:55.186Z,94.20
2023-04-15T15:14:37.928Z,94.20
2023-04-15T15:17:09.111Z,94.20
2023-04-15T15:19:39.408Z,94.20
2023-04-15T15:23:29.316Z,94.20
2023-04-15T15:26:52.190Z,94.10
2023-04-15T15:41:35.272Z,94.20
2023-04-15T15:44:05.550Z,94.20
2023-04-15T15:46:53.306Z,94.20
2023-04-15T16:04:55.840Z,94.20
2023-04-15T16:12:13.908Z,94.20
2023-04-15T16:15:28.718Z,94.20
2023-04-15T16:18:41.640Z,94.20
2023-04-15T16:22:18.742Z,94.20
2023-04-15T16:32:52.070Z,94.10
2023-04-15T16:38:36.786Z,94.10
2023-04-15T16:41:20.129Z,94.10
2023-04-15T17:04:34.279Z,94.30
2023-04-15T17:07:03.525Z,96.20
2023-04-15T17:09:33.441Z,96.50
2023-04-15T17:12:06.464Z,96.10
2023-04-15T17:14:39.727Z,95.80
2023-04-15T17:17:09.735Z,95.60
2023-04-15T17:19:41.988Z,95.50
2023-04-15T17:22:10.046Z,95.30
2023-04-15T17:28:35.295Z,95.20
2023-04-15T17:31:06.199Z,95.10
2023-04-15T17:33:59.168Z,95.10
2023-04-15T17:36:23.988Z,95.00
2023-04-15T17:39:20.258Z,95.00
2023-04-15T17:41:48.630Z,95.00
2023-04-15T17:53:06.144Z,95.00
2023-04-15T18:00:01.646Z,94.90
2023-04-15T18:02:36.837Z,95.10
2023-04-15T18:05:35.386Z,95.10
2023-04-15T18:08:18.790Z,95.20
2023-04-15T18:10:58.724Z,95.20
2023-04-15T18:13:26.897Z,95.30
2023-04-15T18:16:02.383Z,95.20
2023-04-15T18:18:39.331Z,95.10
2023-04-15T19:26:26.832Z,96.00
2023-04-15T19:29:29.954Z,95.90
2023-04-15T19:32:18.011Z,96.00
2023-04-15T19:34:49.246Z,95.90
2023-04-15T19:37:20.402Z,95.90
2023-04-15T19:39:50.843Z,95.70
2023-04-15T19:42:31.173Z,95.60
2023-04-15T19:45:07.018Z,95.50
2023-04-15T19:47:40.258Z,95.40
2023-04-15T19:50:13.570Z,95.30
2023-04-15T19:52:44.366Z,95.60
2023-04-15T19:55:16.168Z,95.20
2023-04-15T19:57:45.626Z,95.10
2023-04-15T20:00:15.849Z,95.10
2023-04-15T20:02:44.029Z,95.00
2023-04-15T20:05:13.995Z,95.00
2023-04-15T20:07:49.354Z,95.00
2023-04-15T20:10:17.501Z,94.90
2023-04-15T20:12:51.451Z,94.90
2023-04-15T20:15:26.297Z,94.90
2023-04-15T20:17:54.867Z,94.90
2023-04-15T20:20:23.805Z,94.80
2023-04-15T20:22:55.535Z,94.80
2023-04-15T20:25:23.938Z,95.20
2023-04-15T20:27:52.131Z,94.80
2023-04-15T20:30:20.478Z,94.80
2023-04-15T20:32:49.893Z,94.80
2023-04-15T20:35:17.896Z,94.80
2023-04-15T20:37:46.078Z,95.10
2023-04-15T20:40:15.733Z,94.80
2023-04-15T20:42:44.365Z,94.80
2023-04-15T20:45:14.690Z,94.80
2023-04-15T20:47:44.555Z,94.80
2023-04-15T20:50:14.808Z,94.80
2023-04-15T20:52:42.830Z,94.80
2023-04-15T20:55:13.926Z,94.80
2023-04-15T20:57:44.393Z,94.80
2023-04-15T21:00:14.796Z,94.90
2023-04-15T21:02:43.256Z,94.90
2023-04-15T21:05:13.606Z,94.90
2023-04-15T21:07:42.087Z,95.00
2023-04-15T21:10:11.918Z,95.00
2023-04-15T21:12:41.188Z,95.00
2023-04-15T21:15:10.465Z,95.00
2023-04-15T21:17:38.680Z,95.20
2023-04-15T21:20:11.040Z,95.00
2023-04-15T21:22:41.277Z,94.90
2023-04-15T21:25:12.955Z,95.00
2023-04-15T21:27:41.484Z,94.90
2023-04-15T21:30:21.479Z,94.80
2023-04-15T21:32:49.464Z,94.80
2023-04-15T21:35:17.642Z,94.80
2023-04-15T21:37:50.158Z,94.80
2023-04-15T21:40:19.473Z,94.80
2023-04-15T21:42:50.676Z,94.80
2023-04-15T21:45:25.060Z,94.70
2023-04-15T21:48:01.202Z,94.80
2023-04-15T21:50:37.680Z,94.80
2023-04-15T21:53:15.750Z,94.80
2023-04-15T21:55:44.391Z,94.80
2023-04-15T21:58:18.579Z,94.80
2023-04-15T22:00:51.899Z,94.80
2023-04-15T22:03:25.150Z,94.70
2023-04-15T22:05:57.514Z,94.70
2023-04-15T22:08:28.110Z,94.80
2023-04-15T22:10:58.270Z,94.70
2023-04-15T22:13:37.068Z,94.80
2023-04-15T22:16:08.157Z,94.70
2023-04-15T22:18:39.390Z,94.80
2023-04-15T22:21:19.206Z,94.80
2023-04-15T22:24:37.999Z,94.80
2023-04-15T22:27:07.841Z,94.70
2023-04-15T22:29:55.825Z,94.70
2023-04-15T22:32:50.621Z,94.80
2023-04-15T22:35:34.673Z,94.80
2023-04-15T22:38:10.912Z,94.70
2023-04-15T22:48:15.546Z,94.70
